Time;durP1;ratioP1;P1;durP2;ratioP2;P2;SDS_P1;SDS_P2;PMS_P1;PMS_P2;Temp;Humidity;BMP_temperature;BMP_pressure;BME280_temperature;BME280_humidity;BME280_pressure;Samples;Min_cycle;Max_cycle;Signal;HPM_P1;HPM_P2
2023/12/10 00:00:58;;;;;;;0.20;0.20;;;-0.70;99.90;;;;;;4941722;29;20078;-74
2023/12/10 00:03:24;;;;;;;1.13;1.13;;;-0.80;99.90;;;;;;4941832;29;20691;-74
2023/12/10 00:05:50;;;;;;;0.20;0.20;;;-0.70;99.90;;;;;;4941433;29;20023;-74
2023/12/10 00:08:16;;;;;;;0.10;0.10;;;-0.70;99.90;;;;;;4940940;29;20637;-75
2023/12/10 00:10:42;;;;;;;0.20;0.20;;;-0.70;99.90;;;;;;4937981;29;20066;-75
2023/12/10 00:13:09;;;;;;;0.20;0.20;;;-0.50;99.90;;;;;;4941201;29;20027;-74
2023/12/10 00:15:38;;;;;;;0.20;0.20;;;-0.50;99.90;;;;;;4952848;29;20019;-74
2023/12/10 00:18:05;;;;;;;0.20;0.20;;;-0.50;99.90;;;;;;4953426;28;20034;-74
2023/12/10 00:20:31;;;;;;;0.30;0.30;;;-0.50;99.90;;;;;;4949801;29;20030;-74
2023/12/10 00:22:57;;;;;;;0.20;0.20;;;-0.40;99.90;;;;;;4945989;29;20023;-75
2023/12/10 00:25:25;;;;;;;11.10;10.50;;;-0.40;99.90;;;;;;4944003;29;20019;-74
2023/12/10 00:27:51;;;;;;;3.30;2.20;;;-0.30;99.90;;;;;;4943523;29;20180;-74
2023/12/10 00:30:17;;;;;;;0.20;0.20;;;-0.30;99.90;;;;;;4944132;29;20118;-74
2023/12/10 00:32:43;;;;;;;0.73;0.73;;;-0.30;99.90;;;;;;4943383;29;20023;-74
2023/12/10 00:35:09;;;;;;;0.20;0.20;;;-0.30;99.90;;;;;;4944075;28;20030;-74
2023/12/10 00:37:35;;;;;;;7.80;7.40;;;-0.30;99.90;;;;;;4943960;29;20031;-75
2023/12/10 00:40:03;;;;;;;0.60;0.60;;;-0.40;99.90;;;;;;4945392;29;20028;-74
2023/12/10 00:42:29;;;;;;;0.20;0.20;;;-0.40;99.90;;;;;;4944647;28;20067;-74
2023/12/10 00:44:55;;;;;;;0.20;0.20;;;-0.40;99.90;;;;;;4945145;29;20019;-74
2023/12/10 00:47:21;;;;;;;1.70;1.70;;;-0.50;99.90;;;;;;4927955;29;20058;-74
2023/12/10 00:49:46;;;;;;;0.30;0.30;;;-0.50;99.90;;;;;;4945000;28;20585;-74
2023/12/10 00:52:12;;;;;;;0.20;0.20;;;-0.50;99.90;;;;;;4946196;29;20517;-75
2023/12/10 00:54:39;;;;;;;0.30;0.30;;;-0.70;99.90;;;;;;4945341;29;20016;-74
2023/12/10 00:57:05;;;;;;;2.20;2.10;;;-0.80;99.90;;;;;;4946736;29;20027;-74
2023/12/10 00:59:31;;;;;;;0.20;0.20;;;-0.80;99.90;;;;;;4945532;29;20032;-74
2023/12/10 01:01:58;;;;;;;0.30;0.30;;;-0.90;99.90;;;;;;4944560;29;20019;-74
2023/12/10 01:04:24;;;;;;;0.17;0.17;;;-0.90;99.90;;;;;;4943518;29;20026;-74
2023/12/10 01:06:50;;;;;;;0.20;0.20;;;-1.00;99.90;;;;;;4944604;29;20020;-74
2023/12/10 01:09:16;;;;;;;0.23;0.23;;;-1.00;99.90;;;;;;4945690;29;20022;-75
2023/12/10 01:11:42;;;;;;;0.20;0.20;;;-1.10;99.90;;;;;;4943933;29;20031;-74
2023/12/10 01:14:08;;;;;;;0.30;0.30;;;-1.10;99.90;;;;;;4944428;28;20027;-74
2023/12/10 01:16:34;;;;;;;0.20;0.20;;;-1.70;99.90;;;;;;4926232;29;20591;-75
2023/12/10 01:19:00;;;;;;;0.60;0.60;;;-1.10;99.90;;;;;;4943689;29;20028;-75
2023/12/10 01:21:26;;;;;;;9.67;9.00;;;-1.20;99.90;;;;;;4943663;28;20019;-74
2023/12/10 01:23:54;;;;;;;0.20;0.20;;;-1.10;99.90;;;;;;4943916;29;20035;-74
2023/12/10 01:26:21;;;;;;;0.20;0.20;;;-1.10;99.90;;;;;;4945317;29;20073;-74
2023/12/10 01:28:47;;;;;;;0.30;0.30;;;-1.10;99.90;;;;;;4943848;29;20062;-74
2023/12/10 01:31:12;;;;;;;0.20;0.20;;;-1.10;99.90;;;;;;4945209;29;20047;-74
2023/12/10 01:33:39;;;;;;;0.47;0.47;;;-1.00;99.90;;;;;;4945060;29;20028;-74
2023/12/10 01:36:05;;;;;;;0.20;0.20;;;-1.00;99.90;;;;;;4945916;29;20019;-75
2023/12/10 01:38:31;;;;;;;0.20;0.20;;;-1.00;99.90;;;;;;4944138;29;20042;-74
2023/12/10 01:40:58;;;;;;;0.20;0.20;;;-1.00;99.90;;;;;;4928490;29;20138;-74
2023/12/10 01:43:23;;;;;;;0.30;0.30;;;-1.00;99.90;;;;;;4946457;28;20042;-74
2023/12/10 01:45:53;;;;;;;0.20;0.20;;;-1.10;99.90;;;;;;4949257;29;20730;-76
2023/12/10 01:48:23;;;;;;;0.20;0.20;;;-1.10;99.90;;;;;;4949257;29;20030;-75
2023/12/10 01:50:50;;;;;;;0.20;0.20;;;-1.10;99.90;;;;;;4952680;29;20061;-75
2023/12/10 01:53:16;;;;;;;0.20;0.20;;;-1.10;99.90;;;;;;4946896;29;20278;-75
2023/12/10 01:55:42;;;;;;;0.20;0.20;;;-1.10;99.90;;;;;;4945680;29;20035;-74
2023/12/10 01:58:09;;;;;;;5.60;5.40;;;-1.00;99.90;;;;;;4944460;29;20114;-74
2023/12/10 02:00:36;;;;;;;0.20;0.20;;;-1.00;99.90;;;;;;4944026;29;20050;-73
2023/12/10 02:03:04;;;;;;;0.40;0.40;;;-1.00;99.90;;;;;;4943595;29;20055;-74
2023/12/10 02:05:30;;;;;;;0.20;0.20;;;-0.90;99.90;;;;;;4941928;28;20750;-75
2023/12/10 02:08:03;;;;;;;0.30;0.30;;;-1.00;99.90;;;;;;4941906;29;20027;-74
2023/12/10 02:10:29;;;;;;;0.30;0.30;;;1.90;99.90;;;;;;4944660;29;20082;-75
2023/12/10 02:12:56;;;;;;;5.80;5.50;;;-0.90;99.90;;;;;;4946213;28;20043;-75
2023/12/10 02:15:22;;;;;;;0.87;0.87;;;-1.10;99.90;;;;;;4953376;29;20114;-75
2023/12/10 02:17:49;;;;;;;0.60;0.60;;;-1.10;99.90;;;;;;4953160;29;20031;-75
2023/12/10 02:20:17;;;;;;;0.20;0.20;;;-1.10;99.90;;;;;;4927291;29;20036;-74
2023/12/10 02:23:17;;;;;;;0.30;0.30;;;-1.00;99.90;;;;;;4943520;29;20024;-74
2023/12/10 02:25:44;;;;;;;0.20;0.20;;;-1.00;99.90;;;;;;4946418;29;20521;-74
2023/12/10 02:28:10;;;;;;;2.10;2.10;;;-1.00;99.90;;;;;;4945001;29;20019;-75
2023/12/10 02:30:39;;;;;;;0.20;0.20;;;-1.10;99.90;;;;;;4953140;29;20509;-74
2023/12/10 02:33:05;;;;;;;4.73;4.57;;;-1.10;99.90;;;;;;4944791;28;20028;-74
2023/12/10 02:35:31;;;;;;;0.27;0.27;;;-1.10;99.90;;;;;;4945259;28;20118;-74
2023/12/10 02:37:57;;;;;;;0.20;0.20;;;-1.00;99.90;;;;;;4942606;29;20038;-74
2023/12/10 02:40:23;;;;;;;0.20;0.20;;;-1.00;99.90;;;;;;4942345;28;20039;-74
2023/12/10 02:42:49;;;;;;;0.23;0.23;;;-1.00;99.90;;;;;;4925541;29;20063;-74
2023/12/10 02:45:15;;;;;;;0.20;0.20;;;-1.20;99.90;;;;;;4943012;29;20656;-75
2023/12/10 02:47:42;;;;;;;0.30;0.30;;;-1.20;99.90;;;;;;4945238;29;20180;-74
2023/12/10 02:50:08;;;;;;;0.70;0.70;;;-1.10;99.90;;;;;;4943989;29;20022;-74
2023/12/10 02:52:36;;;;;;;0.20;0.20;;;-1.10;99.90;;;;;;4943637;29;20042;-74
2023/12/10 02:55:05;;;;;;;0.20;0.20;;;0.70;99.90;;;;;;4949044;29;20023;-74
2023/12/10 02:57:30;;;;;;;0.23;0.23;;;-1.10;99.90;;;;;;4943631;29;20023;-74
2023/12/10 02:59:56;;;;;;;0.20;0.20;;;-1.10;99.90;;;;;;4943077;29;20025;-75
2023/12/10 03:02:22;;;;;;;2.33;2.30;;;-1.10;99.90;;;;;;4942227;29;20019;-74
2023/12/10 03:04:48;;;;;;;0.20;0.20;;;-1.10;99.90;;;;;;4941930;28;20027;-74
2023/12/10 03:07:14;;;;;;;0.20;0.20;;;-1.00;99.90;;;;;;4943906;29;20665;-74
2023/12/10 03:09:40;;;;;;;0.27;0.27;;;-1.10;99.90;;;;;;4942680;29;20024;-74
2023/12/10 03:12:06;;;;;;;0.20;0.20;;;-1.00;99.90;;;;;;4932561;28;20043;-75
2023/12/10 03:14:32;;;;;;;0.20;0.20;;;-1.00;99.90;;;;;;4957486;28;20026;-74
2023/12/10 03:16:58;;;;;;;0.70;0.70;;;-0.70;99.90;;;;;;4979527;28;20029;-74
2023/12/10 03:19:24;;;;;;;0.97;0.97;;;-0.80;99.90;;;;;;4979161;28;20050;-74
2023/12/10 03:21:50;;;;;;;0.20;0.20;;;-0.90;99.90;;;;;;4989923;28;20119;-75
2023/12/10 03:24:16;;;;;;;4.07;3.90;;;-0.90;99.90;;;;;;4983484;28;20588;-74
2023/12/10 03:26:41;;;;;;;0.20;0.20;;;-0.80;99.90;;;;;;4980701;28;20022;-74
2023/12/10 03:29:07;;;;;;;0.20;0.20;;;-0.80;99.90;;;;;;4980556;28;20598;-74
2023/12/10 03:31:33;;;;;;;0.20;0.20;;;-0.70;99.90;;;;;;4979845;28;20019;-74
2023/12/10 03:33:59;;;;;;;0.20;0.20;;;-0.70;99.90;;;;;;4963074;28;20058;-74
2023/12/10 03:36:25;;;;;;;0.20;0.20;;;-0.60;99.90;;;;;;4979355;28;20060;-74
2023/12/10 03:38:50;;;;;;;0.20;0.20;;;-0.50;99.90;;;;;;4979592;28;20569;-74
2023/12/10 03:41:16;;;;;;;0.30;0.30;;;-0.50;99.90;;;;;;4961684;28;20532;-74
2023/12/10 03:43:42;;;;;;;0.13;0.13;;;-0.50;99.90;;;;;;4979398;28;20113;-74
2023/12/10 03:46:08;;;;;;;0.20;0.20;;;-0.50;99.90;;;;;;4984244;28;20014;-74
2023/12/10 03:48:34;;;;;;;0.20;0.20;;;-0.40;99.90;;;;;;4987117;28;20094;-74
2023/12/10 03:50:59;;;;;;;0.20;0.20;;;-0.40;99.90;;;;;;4987768;28;20038;-75
2023/12/10 03:53:25;;;;;;;0.23;0.23;;;-0.40;99.90;;;;;;4986834;28;20019;-74
2023/12/10 03:55:51;;;;;;;0.20;0.20;;;-0.30;99.90;;;;;;4987201;28;20705;-74
2023/12/10 03:58:17;;;;;;;0.20;0.20;;;-0.30;99.90;;;;;;4968461;28;20597;-74
2023/12/10 04:00:44;;;;;;;0.20;0.20;;;-0.30;99.90;;;;;;4987039;28;20026;-75
2023/12/10 04:03:10;;;;;;;0.10;0.10;;;-0.20;99.90;;;;;;4985400;28;20088;-74
2023/12/10 04:05:35;;;;;;;0.20;0.20;;;0.90;99.90;;;;;;4986072;28;20105;-74
2023/12/10 04:08:01;;;;;;;0.20;0.20;;;-0.20;99.90;;;;;;4985646;28;20719;-74
2023/12/10 04:10:27;;;;;;;0.20;0.20;;;-0.10;99.90;;;;;;4987568;28;20027;-74
2023/12/10 04:12:53;;;;;;;0.30;0.30;;;0.00;99.90;;;;;;4993217;28;20492;-74
2023/12/10 04:15:19;;;;;;;0.20;0.20;;;0.10;99.90;;;;;;4987167;28;20531;-74
2023/12/10 04:17:45;;;;;;;0.20;0.20;;;0.20;99.90;;;;;;4976101;28;20018;-74
2023/12/10 04:20:11;;;;;;;0.20;0.20;;;0.20;99.90;;;;;;4992900;28;20440;-74
2023/12/10 04:22:36;;;;;;;0.20;0.20;;;0.20;99.90;;;;;;4985943;28;20018;-74
2023/12/10 04:25:02;;;;;;;0.20;0.20;;;0.20;99.90;;;;;;4968388;28;20030;-74
2023/12/10 04:27:29;;;;;;;0.20;0.20;;;0.10;99.90;;;;;;4986595;28;20038;-74
2023/12/10 04:29:54;;;;;;;0.30;0.30;;;0.00;99.90;;;;;;4987741;28;20026;-74
2023/12/10 04:32:20;;;;;;;0.20;0.20;;;-0.10;99.90;;;;;;4988441;28;20535;-74
2023/12/10 04:34:46;;;;;;;0.30;0.30;;;-0.20;99.90;;;;;;4988495;28;20041;-75
2023/12/10 04:37:13;;;;;;;0.20;0.20;;;-0.20;99.90;;;;;;4988579;28;20056;-74
2023/12/10 04:39:39;;;;;;;0.20;0.20;;;-0.20;99.90;;;;;;4993268;28;20034;-74
2023/12/10 04:42:05;;;;;;;0.97;0.97;;;-0.10;99.90;;;;;;4988465;28;20058;-75
2023/12/10 04:44:30;;;;;;;0.20;0.20;;;-0.10;99.90;;;;;;4988994;28;20026;-75
2023/12/10 04:46:56;;;;;;;9.30;8.70;;;-0.10;99.90;;;;;;4985662;28;20022;-75
2023/12/10 04:49:22;;;;;;;13.33;12.73;;;0.00;99.90;;;;;;4985085;28;20495;-74
2023/12/10 04:51:48;;;;;;;0.20;0.20;;;-0.10;99.90;;;;;;4984932;28;20026;-74
2023/12/10 04:54:14;;;;;;;0.20;0.20;;;0.00;99.90;;;;;;4984830;28;20026;-74
2023/12/10 04:56:39;;;;;;;0.20;0.20;;;0.10;99.90;;;;;;4983862;28;20033;-74
2023/12/10 04:59:05;;;;;;;0.60;0.60;;;0.00;99.90;;;;;;4981820;28;20034;-74
2023/12/10 05:01:31;;;;;;;1.63;1.63;;;0.10;99.90;;;;;;4982726;28;20037;-74
2023/12/10 05:03:57;;;;;;;0.10;0.10;;;0.10;99.90;;;;;;4983485;28;20495;-74
2023/12/10 05:06:22;;;;;;;1.60;1.60;;;0.20;99.90;;;;;;4982472;28;20105;-74
2023/12/10 05:08:49;;;;;;;0.20;0.20;;;0.30;99.90;;;;;;4965940;28;20022;-74
2023/12/10 05:11:15;;;;;;;1.60;1.57;;;0.30;99.90;;;;;;4983284;28;20015;-74
2023/12/10 05:13:40;;;;;;;20.57;18.77;;;0.30;99.90;;;;;;4982153;28;20033;-74
2023/12/10 05:16:06;;;;;;;0.20;0.20;;;0.30;99.90;;;;;;4982878;28;20082;-75
2023/12/10 05:18:32;;;;;;;22.00;20.87;;;0.30;99.90;;;;;;4983220;28;20057;-74
2023/12/10 05:20:58;;;;;;;0.20;0.20;;;0.40;99.90;;;;;;4982488;28;20025;-74
2023/12/10 05:23:24;;;;;;;0.20;0.20;;;0.40;99.90;;;;;;4983814;28;20019;-74
2023/12/10 05:25:50;;;;;;;0.73;0.73;;;0.50;99.90;;;;;;4982814;28;20030;-74
2023/12/10 05:28:16;;;;;;;0.20;0.20;;;0.50;99.90;;;;;;4982239;28;20658;-74
2023/12/10 05:30:42;;;;;;;0.50;0.50;;;0.50;99.90;;;;;;4982843;28;20069;-74
2023/12/10 05:33:07;;;;;;;1.38;1.38;;;0.50;99.90;;;;;;4982312;28;20038;-74
2023/12/10 05:35:34;;;;;;;2.38;2.28;;;0.60;99.90;;;;;;4966822;28;20308;-74
2023/12/10 05:38:00;;;;;;;0.28;0.28;;;0.60;99.90;;;;;;4984855;28;20065;-74
2023/12/10 05:40:26;;;;;;;1.45;1.40;;;0.50;99.90;;;;;;4964031;28;20050;-74
2023/12/10 05:42:53;;;;;;;1.63;1.58;;;0.50;99.90;;;;;;4982067;28;20038;-74
2023/12/10 05:45:19;;;;;;;5.13;4.93;;;0.60;99.90;;;;;;4983705;28;20018;-74
2023/12/10 05:47:44;;;;;;;1.48;1.45;;;0.50;99.90;;;;;;4983816;28;20077;-74
2023/12/10 05:50:10;;;;;;;0.82;0.82;;;0.70;99.90;;;;;;4980880;28;20042;-74
2023/12/10 05:52:36;;;;;;;16.98;15.43;;;0.80;99.90;;;;;;4980850;28;20030;-75
2023/12/10 05:55:02;;;;;;;0.20;0.20;;;0.80;99.90;;;;;;4981359;28;20673;-74
2023/12/10 05:57:28;;;;;;;3.13;3.03;;;0.80;99.90;;;;;;4981248;28;20018;-75
2023/12/10 05:59:54;;;;;;;1.75;1.65;;;0.90;99.90;;;;;;4983371;28;20110;-75
2023/12/10 06:02:22;;;;;;;0.40;0.40;;;0.90;99.90;;;;;;4982350;28;20038;-75
2023/12/10 06:04:48;;;;;;;0.20;0.20;;;0.90;99.90;;;;;;4982282;28;20089;-74
2023/12/10 06:07:13;;;;;;;15.10;14.40;;;1.50;99.90;;;;;;4980631;28;20022;-74
2023/12/10 06:09:39;;;;;;;0.20;0.20;;;1.00;99.90;;;;;;4981302;28;20018;-75
2023/12/10 06:12:05;;;;;;;0.20;0.20;;;1.00;99.90;;;;;;4981812;28;20188;-75
2023/12/10 06:14:31;;;;;;;0.20;0.20;;;0.90;99.90;;;;;;4984426;28;20018;-75
2023/12/10 06:16:57;;;;;;;0.20;0.20;;;1.00;99.90;;;;;;4990425;28;20212;-75
2023/12/10 06:19:23;;;;;;;3.67;3.42;;;1.00;99.90;;;;;;4997305;28;20038;-76
2023/12/10 06:21:49;;;;;;;0.20;0.20;;;1.00;99.90;;;;;;4994001;28;20019;-75
2023/12/10 06:24:16;;;;;;;0.10;0.10;;;1.10;99.90;;;;;;4990894;28;20026;-76
2023/12/10 06:26:42;;;;;;;0.10;0.10;;;1.10;99.90;;;;;;4987936;28;20033;-75
2023/12/10 06:29:08;;;;;;;0.63;0.63;;;1.20;99.90;;;;;;4983622;28;20030;-75
2023/12/10 06:31:34;;;;;;;0.90;0.90;;;1.20;99.90;;;;;;4985865;28;20034;-75
2023/12/10 06:33:59;;;;;;;3.92;3.80;;;1.20;99.90;;;;;;4988664;28;20453;-75
2023/12/10 06:36:25;;;;;;;0.10;0.10;;;1.20;99.90;;;;;;4990497;28;20076;-76
2023/12/10 06:38:51;;;;;;;0.20;0.20;;;1.30;99.90;;;;;;4980848;28;20037;-75
2023/12/10 06:41:17;;;;;;;0.10;0.10;;;1.30;99.90;;;;;;4966063;28;20129;-76
2023/12/10 06:43:43;;;;;;;0.10;0.10;;;1.30;99.90;;;;;;4984654;28;20042;-75
2023/12/10 06:46:08;;;;;;;0.10;0.10;;;1.30;99.90;;;;;;4985942;28;20022;-75
2023/12/10 06:48:34;;;;;;;0.10;0.10;;;1.50;99.90;;;;;;4988753;28;20114;-78
2023/12/10 06:51:02;;;;;;;0.10;0.10;;;1.40;99.90;;;;;;4989239;28;20030;-75
2023/12/10 06:53:28;;;;;;;0.55;0.55;;;1.50;99.90;;;;;;4986590;28;20035;-75
2023/12/10 06:55:54;;;;;;;0.10;0.10;;;1.50;99.90;;;;;;4980397;28;20018;-75
2023/12/10 06:58:20;;;;;;;0.10;0.10;;;1.50;99.90;;;;;;4981914;28;20205;-75
2023/12/10 07:00:46;;;;;;;0.10;0.10;;;1.60;99.90;;;;;;4981259;28;20712;-75
2023/12/10 07:03:12;;;;;;;0.20;0.20;;;1.70;99.90;;;;;;4981380;28;20101;-75
2023/12/10 07:05:37;;;;;;;0.20;0.20;;;1.80;99.90;;;;;;4981804;28;20037;-75
2023/12/10 07:08:04;;;;;;;0.20;0.20;;;1.70;99.90;;;;;;4982740;28;20026;-75
2023/12/10 07:10:33;;;;;;;0.22;0.22;;;1.70;99.90;;;;;;4981029;28;20024;-75
2023/12/10 07:12:59;;;;;;;4.80;4.60;;;1.70;99.90;;;;;;4981614;28;20716;-75
2023/12/10 07:15:25;;;;;;;1.00;1.00;;;1.70;99.90;;;;;;4982400;28;20074;-74
2023/12/10 07:17:50;;;;;;;1.05;1.05;;;1.80;99.90;;;;;;4981606;28;20022;-75
2023/12/10 07:20:16;;;;;;;15.95;15.10;;;1.80;99.90;;;;;;4980293;28;20045;-75
2023/12/10 07:22:42;;;;;;;3.33;3.08;;;2.00;99.90;;;;;;4982239;28;20022;-76
2023/12/10 07:25:08;;;;;;;0.10;0.10;;;1.90;99.90;;;;;;4980517;28;20026;-75
2023/12/10 07:27:34;;;;;;;3.22;3.13;;;2.00;99.90;;;;;;4978587;28;20101;-75
2023/12/10 07:30:00;;;;;;;2.10;1.85;;;2.10;99.90;;;;;;4979337;28;20615;-74
2023/12/10 07:32:26;;;;;;;0.35;0.35;;;2.00;99.90;;;;;;4979456;28;20030;-74
2023/12/10 07:34:51;;;;;;;1.08;1.05;;;2.00;99.90;;;;;;4978958;28;20651;-75
2023/12/10 07:37:17;;;;;;;0.20;0.20;;;2.00;99.90;;;;;;4983771;28;20035;-74
2023/12/10 07:39:43;;;;;;;11.40;10.85;;;2.00;99.90;;;;;;4980081;28;20122;-74
2023/12/10 07:42:10;;;;;;;8.60;8.18;;;1.90;99.90;;;;;;4983720;28;20042;-75
2023/12/10 07:44:36;;;;;;;0.22;0.22;;;2.00;99.90;;;;;;4987731;28;20026;-75
2023/12/10 07:47:02;;;;;;;7.82;7.38;;;1.90;99.90;;;;;;4988550;28;20089;-75
2023/12/10 07:49:28;;;;;;;1.30;1.30;;;1.90;99.90;;;;;;4984601;28;20027;-74
2023/12/10 07:51:54;;;;;;;0.82;0.82;;;1.90;99.90;;;;;;4961934;28;20014;-74
2023/12/10 07:54:20;;;;;;;6.65;6.43;;;3.20;99.90;;;;;;4979220;28;20057;-75
2023/12/10 07:56:46;;;;;;;0.32;0.32;;;1.90;99.90;;;;;;4979129;28;20022;-74
2023/12/10 07:59:12;;;;;;;4.22;4.03;;;1.70;99.90;;;;;;4979426;28;20035;-74
2023/12/10 08:01:43;;;;;;;55.33;18.63;;;1.60;99.90;;;;;;4982013;28;20724;-76
2023/12/10 08:04:09;;;;;;;17.83;16.45;;;1.40;99.90;;;;;;4960758;28;20033;-74
2023/12/10 08:06:35;;;;;;;0.30;0.30;;;1.40;99.90;;;;;;4960996;28;20098;-74
2023/12/10 08:09:04;;;;;;;3.03;2.92;;;1.30;99.90;;;;;;4943380;28;20023;-74
2023/12/10 08:11:32;;;;;;;8.35;7.88;;;1.20;99.90;;;;;;4967250;28;20015;-74
2023/12/10 08:14:03;;;;;;;7.43;7.13;;;1.40;99.90;;;;;;4976860;28;20556;-74
2023/12/10 08:16:37;;;;;;;0.20;0.20;;;1.40;99.90;;;;;;4978564;28;20039;-74
2023/12/10 08:19:03;;;;;;;11.57;11.00;;;1.50;99.90;;;;;;4973784;28;20030;-75
2023/12/10 08:21:31;;;;;;;39.92;37.30;;;1.40;99.90;;;;;;4969522;28;20019;-73
2023/12/10 08:23:57;;;;;;;8.25;7.95;;;1.40;99.90;;;;;;4968974;28;20039;-75
2023/12/10 08:26:23;;;;;;;26.02;21.35;;;1.50;99.90;;;;;;4966974;28;20023;-74
2023/12/10 08:28:50;;;;;;;6.75;6.45;;;1.50;99.90;;;;;;4965232;28;20022;-74
2023/12/10 08:31:16;;;;;;;0.30;0.30;;;1.60;99.90;;;;;;4964422;28;20059;-74
2023/12/10 08:33:44;;;;;;;0.10;0.10;;;1.60;99.90;;;;;;4967128;28;20026;-74
2023/12/10 08:36:10;;;;;;;2.15;2.13;;;1.70;99.90;;;;;;4968984;28;20018;-74
2023/12/10 08:38:37;;;;;;;0.70;0.70;;;1.80;99.90;;;;;;4968089;28;20026;-74
2023/12/10 08:41:04;;;;;;;6.90;6.60;;;1.80;99.90;;;;;;4966580;28;20053;-74
2023/12/10 08:43:30;;;;;;;12.63;12.15;;;1.80;99.90;;;;;;4967563;28;20034;-73
2023/12/10 08:45:57;;;;;;;10.05;9.07;;;1.90;99.90;;;;;;4951102;28;20505;-74
2023/12/10 08:48:23;;;;;;;12.20;11.32;;;2.00;99.90;;;;;;4951423;28;20053;-74
2023/12/10 08:50:49;;;;;;;11.13;10.70;;;2.00;99.90;;;;;;4971144;28;20023;-74
2023/12/10 08:53:15;;;;;;;0.10;0.10;;;2.00;99.90;;;;;;4968225;28;20027;-74
2023/12/10 08:55:41;;;;;;;0.30;0.30;;;2.10;99.90;;;;;;4965983;28;20084;-74
2023/12/10 08:58:07;;;;;;;0.10;0.10;;;2.00;99.90;;;;;;4969886;28;20023;-74
2023/12/10 09:00:33;;;;;;;5.13;4.93;;;1.90;99.90;;;;;;4968090;28;20029;-74
2023/12/10 09:02:59;;;;;;;14.40;8.38;;;1.90;99.90;;;;;;4968547;28;20015;-74
2023/12/10 09:05:24;;;;;;;12.65;11.90;;;2.00;99.90;;;;;;4967347;28;20031;-74
2023/12/10 09:07:50;;;;;;;1.33;0.82;;;2.00;99.90;;;;;;4969370;28;20015;-74
2023/12/10 09:10:16;;;;;;;2.25;2.15;;;2.00;99.90;;;;;;4969988;28;20041;-74
2023/12/10 09:12:42;;;;;;;5.40;4.57;;;2.10;99.90;;;;;;4970820;28;20038;-78
2023/12/10 09:15:08;;;;;;;1.95;1.85;;;2.10;99.90;;;;;;4974150;28;20023;-78
2023/12/10 09:17:34;;;;;;;1.30;1.30;;;2.10;99.90;;;;;;4956640;28;20058;-78
2023/12/10 09:20:00;;;;;;;53.80;49.97;;;2.20;99.90;;;;;;4974154;28;20027;-75
2023/12/10 09:22:26;;;;;;;40.10;36.15;;;4.00;99.90;;;;;;4979359;28;20023;-75
2023/12/10 09:24:51;;;;;;;0.28;0.28;;;2.30;99.90;;;;;;4974807;28;20041;-75
2023/12/10 09:27:18;;;;;;;0.95;0.95;;;2.30;99.90;;;;;;4980016;28;20030;-78
2023/12/10 09:29:45;;;;;;;27.05;25.50;;;2.40;99.90;;;;;;4987753;28;20082;-78
2023/12/10 09:32:12;;;;;;;1.45;1.45;;;3.00;99.90;;;;;;4984194;28;20022;-77
2023/12/10 09:34:39;;;;;;;0.10;0.10;;;4.50;99.90;;;;;;4970644;28;20050;-83
2023/12/10 09:37:17;;;;;;;4.95;4.80;;;3.90;99.90;;;;;;4955909;23;20071;-75
2023/12/10 09:39:43;;;;;;;0.10;0.10;;;3.80;99.90;;;;;;4929217;29;20099;-75
2023/12/10 09:42:09;;;;;;;0.10;0.10;;;3.60;99.90;;;;;;4925491;29;20023;-74
2023/12/10 09:44:35;;;;;;;4.90;4.75;;;3.40;99.90;;;;;;4942386;28;20034;-74
2023/12/10 09:47:07;;;;;;;0.13;0.13;;;3.20;99.90;;;;;;4943613;28;20035;-75
2023/12/10 09:49:37;;;;;;;15.82;14.52;;;3.10;99.90;;;;;;4928152;29;20088;-75
2023/12/10 09:52:05;;;;;;;15.48;14.80;;;3.00;99.90;;;;;;4944611;29;20031;-75
2023/12/10 09:54:30;;;;;;;3.75;3.65;;;2.90;99.90;;;;;;4943652;29;20046;-74
2023/12/10 09:56:56;;;;;;;3.28;3.10;;;2.90;99.90;;;;;;4942732;29;20747;-74
2023/12/10 09:59:22;;;;;;;0.35;0.35;;;2.80;99.90;;;;;;4942415;29;20035;-74
2023/12/10 10:01:53;;;;;;;27.95;14.00;;;2.80;99.90;;;;;;4947191;29;20031;-75
2023/12/10 10:04:19;;;;;;;8.23;7.90;;;2.80;99.90;;;;;;4942247;29;20034;-75
2023/12/10 10:06:45;;;;;;;1.05;1.05;;;2.90;99.90;;;;;;4942285;28;20137;-74
2023/12/10 10:09:11;;;;;;;1.35;1.35;;;3.00;99.90;;;;;;4941996;29;20027;-75
2023/12/10 10:11:41;;;;;;;0.10;0.10;;;3.20;99.90;;;;;;4942292;29;20115;-75
2023/12/10 10:14:16;;;;;;;0.20;0.20;;;3.30;99.90;;;;;;4942192;29;20031;-74
2023/12/10 10:16:47;;;;;;;0.52;0.52;;;3.30;99.90;;;;;;4942009;29;20036;-74
2023/12/10 10:19:14;;;;;;;60.35;48.55;;;3.30;99.90;;;;;;4927701;28;20070;-76
2023/12/10 10:21:44;;;;;;;9.43;9.02;;;3.30;99.90;;;;;;4947373;29;20031;-75
2023/12/10 10:24:13;;;;;;;6.50;5.88;;;3.30;99.90;;;;;;4947361;29;20266;-81
2023/12/10 10:26:40;;;;;;;25.80;24.15;;;3.30;99.90;;;;;;4931279;29;20019;-77
2023/12/10 10:29:07;;;;;;;33.33;31.30;;;3.30;99.90;;;;;;4924988;29;20027;-74
2023/12/10 10:31:33;;;;;;;1.50;1.45;;;2.80;99.90;;;;;;4928156;28;20671;-74
2023/12/10 10:34:02;;;;;;;0.00;0.00;;;3.20;99.90;;;;;;4954872;28;20036;-75
2023/12/10 10:36:29;;;;;;;1.48;1.45;;;3.20;99.90;;;;;;4924299;29;20577;-74
2023/12/10 10:38:57;;;;;;;0.10;0.10;;;3.30;99.90;;;;;;4929389;29;20052;-76
2023/12/10 10:41:23;;;;;;;6.82;3.28;;;3.30;99.90;;;;;;4946571;29;20123;-74
2023/12/10 10:43:49;;;;;;;1.85;1.75;;;3.30;99.90;;;;;;4944955;29;20085;-74
2023/12/10 10:46:21;;;;;;;0.10;0.10;;;3.40;99.90;;;;;;4943310;29;20031;-78
2023/12/10 10:48:51;;;;;;;1.23;1.20;;;3.30;99.90;;;;;;4952140;29;20039;-75
2023/12/10 10:51:31;;;;;;;0.10;0.10;;;3.30;99.90;;;;;;4927554;29;20036;-74
2023/12/10 10:53:59;;;;;;;1.80;1.70;;;3.20;99.90;;;;;;4923297;29;20087;-73
2023/12/10 10:56:25;;;;;;;0.85;0.85;;;3.10;99.90;;;;;;4925410;29;20063;-73
2023/12/10 10:58:51;;;;;;;0.85;0.85;;;3.10;99.90;;;;;;4907581;29;20039;-76
2023/12/10 11:01:40;;;;;;;0.32;0.32;;;3.10;99.90;;;;;;4927247;29;20383;-75
2023/12/10 11:04:07;;;;;;;0.10;0.10;;;3.10;99.90;;;;;;4928095;29;20032;-74
2023/12/10 11:06:36;;;;;;;14.77;13.63;;;3.20;99.90;;;;;;4929082;29;20039;-73
2023/12/10 11:09:02;;;;;;;2.15;2.03;;;3.20;99.90;;;;;;4912903;29;20036;-73
2023/12/10 11:11:28;;;;;;;4.65;4.38;;;3.30;99.90;;;;;;4912589;29;20681;-76
2023/12/10 11:13:54;;;;;;;14.32;13.07;;;3.30;99.90;;;;;;4909201;29;20110;-77
2023/12/10 11:16:23;;;;;;;1.10;1.10;;;3.30;99.90;;;;;;4910719;29;20102;-77
2023/12/10 11:18:53;;;;;;;2.25;2.20;;;3.40;99.90;;;;;;4912579;29;20162;-75
2023/12/10 11:21:19;;;;;;;11.45;10.55;;;3.40;99.90;;;;;;4929632;29;20023;-74
2023/12/10 11:23:45;;;;;;;0.82;0.82;;;3.50;99.90;;;;;;4925804;29;20670;-75
2023/12/10 11:26:11;;;;;;;12.25;11.48;;;3.50;99.90;;;;;;4923391;29;20083;-73
2023/12/10 11:28:38;;;;;;;1.27;1.27;;;3.50;99.90;;;;;;4905802;29;20033;-74
2023/12/10 11:31:03;;;;;;;0.30;0.30;;;3.50;99.90;;;;;;4922289;29;20651;-75
2023/12/10 11:33:29;;;;;;;7.82;7.50;;;3.50;99.90;;;;;;4922420;29;20157;-77
2023/12/10 11:35:59;;;;;;;10.27;9.70;;;3.50;99.90;;;;;;4905923;29;20087;-77
2023/12/10 11:38:25;;;;;;;2.35;2.25;;;3.40;99.90;;;;;;4922222;29;20052;-75
2023/12/10 11:40:52;;;;;;;3.08;2.97;;;3.30;99.90;;;;;;4921957;29;20090;-75
2023/12/10 11:43:21;;;;;;;22.08;20.95;;;3.10;99.90;;;;;;4943765;28;20047;-75
2023/12/10 11:45:57;;;;;;;;;;;;;;;;;;;;;
2023/12/10 11:48:24;;;;;;;9.57;9.18;;;2.90;99.90;;;;;;4948737;23;20050;-74
2023/12/10 11:50:50;;;;;;;25.35;21.63;;;;;;;;;;4966003;28;20041;-75
2023/12/10 11:53:31;;;;;;;29.45;24.60;;;2.70;99.90;;;;;;4983074;28;20113;-75
2023/12/10 11:55:57;;;;;;;6.97;6.63;;;2.80;99.90;;;;;;4962107;28;20668;-75
2023/12/10 11:58:46;;;;;;;9.13;8.68;;;2.80;99.90;;;;;;4962055;28;20117;-75
2023/12/10 12:01:16;;;;;;;18.15;16.67;;;2.80;99.90;;;;;;4885552;29;20059;-76
2023/12/10 12:04:07;;;;;;;1.85;1.80;;;2.70;99.90;;;;;;4886345;29;20138;-76
2023/12/10 12:06:41;;;;;;;1.20;1.20;;;3.10;99.90;;;;;;4814237;29;20030;-80
2023/12/10 12:09:08;;;;;;;10.15;9.75;;;2.60;99.90;;;;;;4831554;29;20071;-79
2023/12/10 12:11:34;;;;;;;0.20;0.20;;;2.70;99.90;;;;;;4831208;29;20022;-80
2023/12/10 12:14:01;;;;;;;43.35;32.95;;;2.70;99.90;;;;;;4833344;29;20766;-76
2023/12/10 12:16:27;;;;;;;2.38;2.28;;;2.70;99.90;;;;;;4833318;29;20069;-80
2023/12/10 12:18:53;;;;;;;2.42;2.33;;;2.60;99.90;;;;;;4831369;29;20066;-77
2023/12/10 12:21:18;;;;;;;2.80;2.70;;;2.50;99.90;;;;;;4830592;29;20034;-75
2023/12/10 12:23:44;;;;;;;0.10;0.10;;;2.40;99.90;;;;;;4828976;29;20725;-76
2023/12/10 12:26:10;;;;;;;1.75;1.75;;;2.30;99.90;;;;;;4830308;29;20037;-77
2023/12/10 12:28:36;;;;;;;0.10;0.10;;;2.20;99.90;;;;;;4829543;29;20024;-79
2023/12/10 12:31:02;;;;;;;1.65;1.65;;;2.10;99.90;;;;;;4836829;29;20611;-76
2023/12/10 12:33:28;;;;;;;0.10;0.10;;;2.10;99.90;;;;;;4848552;29;20037;-76
2023/12/10 12:35:54;;;;;;;1.55;1.50;;;2.00;99.90;;;;;;4839966;29;20034;-76
2023/12/10 12:38:19;;;;;;;0.30;0.30;;;2.00;99.90;;;;;;4878299;29;20063;-74
2023/12/10 12:40:45;;;;;;;0.40;0.40;;;2.00;99.90;;;;;;4903677;29;20029;-75
2023/12/10 12:43:11;;;;;;;5.38;5.03;;;2.10;99.90;;;;;;4924325;28;20120;-75
2023/12/10 12:45:37;;;;;;;50.33;46.28;;;2.10;99.90;;;;;;4982700;28;20101;-73
2023/12/10 12:48:03;;;;;;;1.23;1.23;;;2.20;99.90;;;;;;4997815;28;20046;-76
2023/12/10 12:50:29;;;;;;;0.10;0.10;;;2.30;99.90;;;;;;4982664;28;20023;-73